This is the latest recevied weather packets stored in our database for station/object OM8AGG-10. If no packets are shown the sender has not sent any weather packets the latest 10 day(s).
| Time | Temp. | Humidity | Pressure | Rain* | Wind** | Luminosity | Snow |
|---|---|---|---|---|---|---|---|
| 1778032202 | 6.11° C | 86% | 1012.8 hPa | - | - | - | - |
| 1778031302 | 6.11° C | 85% | 1012.9 hPa | - | - | - | - |
| 1778030402 | 6.67° C | 85% | 1012.9 hPa | - | - | - | - |
| 1778029502 | 7.22° C | 84% | 1012.7 hPa | - | - | - | - |
| 1778026802 | 8.89° C | 74% | 1012.7 hPa | - | - | - | - |
| 1778025902 | 7.78° C | 78% | 1012.8 hPa | - | - | - | - |
| 1778025002 | 7.22° C | 79% | 1012.8 hPa | - | - | - | - |
| 1778024102 | 7.78° C | 78% | 1012.6 hPa | - | - | - | - |
| 1778023202 | 7.78° C | 74% | 1012.5 hPa | - | - | - | - |
| 1778022302 | 8.89° C | 69% | 1012.3 hPa | - | - | - | - |
| 1778021401 | 10° C | 62% | 1012.3 hPa | - | - | - | - |
| 1778020501 | 10° C | 61% | 1012.4 hPa | - | - | - | - |
| 1778019601 | 10.56° C | 62% | 1012.4 hPa | - | - | - | - |
| 1778018701 | 11.11° C | 58% | 1012.3 hPa | - | - | - | - |
| 1778017801 | 11.67° C | 57% | 1012.4 hPa | - | - | - | - |
| 1778016901 | 11.67° C | 55% | 1012.4 hPa | - | - | - | - |
| 1778016001 | 11.67° C | 55% | 1012.5 hPa | - | - | - | - |
| 1778015101 | 11.67° C | 54% | 1012.4 hPa | - | - | - | - |
| 1778014201 | 12.22° C | 53% | 1012.4 hPa | - | - | - | - |
| 1778013301 | 12.22° C | 52% | 1012.4 hPa | - | - | - | - |
| 1778012401 | 12.22° C | 52% | 1012.3 hPa | - | - | - | - |
| 1778011501 | 12.22° C | 53% | 1012.1 hPa | - | - | - | - |
| 1778010601 | 12.22° C | 57% | 1012.1 hPa | - | - | - | - |
| 1778009700 | 12.78° C | 53% | 1011.9 hPa | - | - | - | - |
| 1778008800 | 14.44° C | 48% | 1011.8 hPa | - | - | - | - |
* Rain since midnight (hover to see other rain measurements)
** Current wind speed in m/s (hover to see current wind gust speed)